Stations météo

réclame
Mon MeteoGroup
Beitem, Belgique (6414): Température de l'air & dewpoint: 19.02.2018 22:00:00 - 25.02.2018 22:00:00 (CET)Beitem, Belgique (6414): Vitesse du vent & gusts: 19.02.2018 22:00:00 - 25.02.2018 22:00:00 (CET)Beitem, Belgique (6414): Direction du vent: 19.02.2018 22:00:00 - 25.02.2018 22:00:00 (CET)Beitem, Belgique (6414): reduced air pressure: 19.02.2018 22:00:00 - 25.02.2018 22:00:00 (CET)Beitem, Belgique (6414): Ensoleillement: 19.02.2018 22:00:00 - 25.02.2018 22:00:00 (CET)Beitem, Belgique (6414): Quantités de précipitations: 19.02.2018 22:00:00 - 25.02.2018 22:00:00 (CET)
Date & Time tt [°C] td [°C] ff [km/h] ff [knt] fx [km/h] fx [knt] dd ppp [hPa] sd [min] rr [mm]
25.02.2018 22:00:00 -1,9 -9,5 18 10 - - ENE 1029,1 - -
25.02.2018 21:00:00 -1,5 -9,4 20 11 38 20 NE 1028,7 0 0,0
25.02.2018 20:00:00 -1,0 -9,5 23 12 31 17 NE 1028,5 0 0,0
25.02.2018 19:00:00 -0,4 -10,9 18 10 31 17 NE 1028,2 16 0,0
25.02.2018 18:00:00 0,5 -11,3 19 10 34 18 NE 1028,1 60 0,0
25.02.2018 17:00:00 1,2 -11,8 24 13 37 20 NE 1027,7 60 0,0
25.02.2018 16:00:00 1,7 -12,6 24 13 37 20 ENE 1027,5 60 0,0
25.02.2018 15:00:00 1,5 -12,0 23 12 34 18 NE 1027,7 60 0,0
25.02.2018 14:00:00 1,2 -11,0 18 10 36 19 ENE 1027,9 60 0,0
25.02.2018 13:00:00 0,5 -11,1 22 12 37 20 E 1028,4 60 0,0
25.02.2018 12:00:00 -0,6 -10,9 24 13 34 19 ENE 1028,6 60 0,0
25.02.2018 11:00:00 -1,3 -10,5 25 14 37 20 ENE 1028,9 60 0,0
25.02.2018 10:00:00 -2,2 -10,1 24 13 39 21 E 1028,4 60 0,0
25.02.2018 09:00:00 -2,9 -9,7 24 13 37 20 ENE 1028,0 58 0,0
25.02.2018 08:00:00 -3,2 -9,5 22 12 36 19 ENE 1027,3 0 0,0
25.02.2018 07:00:00 -2,9 -9,2 18 10 34 18 E 1026,8 0 0,0
25.02.2018 06:00:00 -2,5 -9,0 21 11 34 18 ENE 1026,7 0 0,0
25.02.2018 05:00:00 -2,3 -8,5 18 10 32 17 ENE 1026,3 0 0,0
25.02.2018 04:00:00 -1,9 -8,1 20 11 32 18 ENE 1025,8 0 0,0
25.02.2018 03:00:00 -1,6 -7,8 19 10 34 18 ENE 1025,8 0 0,0
25.02.2018 02:00:00 -1,2 -7,5 21 11 34 18 ENE 1025,6 0 0,0
25.02.2018 01:00:00 -0,7 -7,3 22 12 - - E 1025,7 0 0,0
25.02.2018 00:00:00 -0,3 -6,8 19 11 34 19 E 1025,6 0 0,0
24.02.2018 23:00:00 0,0 -6,1 22 12 40 22 ENE 1025,0 0 0,0
24.02.2018 22:00:00 0,4 -5,4 26 14 39 21 E 1024,6 0 0,0
24.02.2018 21:00:00 1,1 -5,0 24 13 41 22 ENE 1024,1 0 0,0
24.02.2018 20:00:00 1,6 -5,2 24 13 42 23 ENE 1023,6 0 0,0
24.02.2018 19:00:00 2,9 -5,9 25 14 40 21 ENE 1023,0 4 0,0
24.02.2018 18:00:00 4,1 -7,1 25 13 41 22 ENE 1022,3 60 0,0
24.02.2018 17:00:00 5,0 -7,2 26 14 43 23 ENE 1022,0 60 0,0
24.02.2018 16:00:00 4,9 -7,9 25 13 43 23 ENE 1021,7 60 0,0
24.02.2018 15:00:00 4,5 -8,7 28 15 40 22 ENE 1021,7 60 0,0
24.02.2018 14:00:00 3,7 -10,0 30 16 43 23 ENE 1021,8 60 0,0
24.02.2018 13:00:00 2,5 -9,9 25 14 44 24 E 1022,3 60 0,0
24.02.2018 12:00:00 1,1 -9,9 24 13 40 21 E 1022,3 60 0,0
24.02.2018 11:00:00 -0,3 -10,1 26 14 41 22 ENE 1022,7 60 0,0
24.02.2018 10:00:00 -1,6 -9,9 22 12 41 22 E 1022,4 60 0,0
24.02.2018 09:00:00 -2,6 -9,6 25 14 36 19 E 1022,0 39 0,0
24.02.2018 08:00:00 -3,1 -9,1 20 11 31 17 ENE 1021,5 0 0,0
24.02.2018 07:00:00 -3,0 -8,4 22 12 29 16 E 1021,1 0 0,0
24.02.2018 06:00:00 -2,7 -7,9 17 9 29 15 E 1021,0 0 0,0
24.02.2018 05:00:00 -2,5 -7,2 17 9 25 13 ENE 1020,7 0 0,0
24.02.2018 04:00:00 -2,3 -6,6 15 8 24 13 ENE 1020,6 0 0,0
24.02.2018 03:00:00 -1,8 -6,1 15 8 24 13 ENE 1020,8 0 0,0
24.02.2018 02:00:00 -1,6 -5,8 15 8 22 12 E 1020,6 0 0,0
24.02.2018 01:00:00 -1,3 -6,0 14 8 22 12 ENE 1020,5 0 0,0
24.02.2018 00:00:00 -1,1 -5,7 14 7 22 12 ENE 1020,1 0 0,0
23.02.2018 23:00:00 -0,6 -5,7 16 8 23 12 ENE 1020,0 0 0,0
23.02.2018 22:00:00 -0,2 -5,6 12 7 21 12 ENE 1020,1 0 0,0
23.02.2018 21:00:00 0,0 -5,7 14 8 24 13 ENE 1020,3 0 0,0
23.02.2018 20:00:00 0,9 -6,1 13 7 23 12 ENE 1020,1 0 0,0
23.02.2018 19:00:00 0,9 -5,9 11 6 32 17 E 1020,0 9 0,0
23.02.2018 18:00:00 2,4 -7,0 21 12 34 18 ENE 1019,8 60 0,0
23.02.2018 17:00:00 3,0 -6,5 20 11 39 21 ENE 1019,6 60 0,0
23.02.2018 16:00:00 3,0 -5,8 22 12 35 19 ENE 1019,7 60 0,0
23.02.2018 15:00:00 2,9 -5,2 20 11 32 18 ENE 1020,1 60 0,0
23.02.2018 14:00:00 1,9 -4,6 21 11 34 18 ENE 1020,6 60 0,0
23.02.2018 13:00:00 1,6 -4,4 22 12 40 22 ENE 1021,1 58 0,0
23.02.2018 12:00:00 1,3 -4,8 27 15 41 22 ENE 1021,7 60 0,0
23.02.2018 11:00:00 0,7 -5,0 23 13 38 21 ENE 1022,2 60 0,0
23.02.2018 10:00:00 -0,2 -3,8 15 8 25 14 ENE 1022,7 60 0,0
23.02.2018 09:00:00 -1,5 -3,7 15 8 23 13 ENE 1022,5 37 0,0
23.02.2018 08:00:00 -2,0 -4,0 15 8 23 13 NE 1022,2 0 0,0
23.02.2018 07:00:00 -1,8 -4,5 14 8 25 13 ENE 1022,1 0 0,0
23.02.2018 06:00:00 -1,8 -4,5 14 8 24 13 ENE 1022,0 0 0,0
23.02.2018 05:00:00 -1,4 -4,6 18 10 28 15 NE 1021,8 0 0,0
23.02.2018 04:00:00 -1,2 -4,7 19 11 29 16 NE 1022,0 0 0,0
23.02.2018 03:00:00 -1,1 -4,5 17 9 26 14 ENE 1022,3 0 0,0
23.02.2018 02:00:00 -0,8 -4,3 15 8 23 12 ENE 1022,6 0 0,0
23.02.2018 01:00:00 -0,5 -3,8 18 10 24 13 ENE 1022,8 0 0,0
23.02.2018 00:00:00 -0,1 -3,7 15 8 25 14 ENE 1022,8 0 0,0
22.02.2018 23:00:00 0,2 -3,6 18 10 26 14 ENE 1022,8 0 0,0
22.02.2018 22:00:00 0,7 -3,9 14 8 30 16 NE 1022,7 0 0,0
22.02.2018 21:00:00 1,2 -3,4 17 9 28 15 ENE 1022,3 0 0,0
22.02.2018 20:00:00 1,5 -3,3 16 9 31 17 NE 1022,5 0 0,0
22.02.2018 19:00:00 2,5 -3,6 22 12 32 17 NE 1022,3 5 0,0
22.02.2018 18:00:00 3,4 -2,8 20 11 37 20 NNE 1022,3 60 0,0
22.02.2018 17:00:00 4,3 -3,7 24 13 40 22 NE 1021,8 60 0,0
22.02.2018 16:00:00 4,5 -4,0 25 13 37 20 NE 1022,1 60 0,0
22.02.2018 15:00:00 4,6 -4,5 21 11 36 19 ENE 1022,7 60 0,0
22.02.2018 14:00:00 4,3 -4,4 20 11 34 18 ENE 1023,4 60 0,0
22.02.2018 13:00:00 3,5 -4,2 18 10 32 18 E 1023,6 60 0,0
22.02.2018 12:00:00 2,1 -3,9 19 11 30 16 E 1024,0 60 0,0
22.02.2018 11:00:00 0,8 -3,1 16 9 27 15 ENE 1024,3 60 0,0
22.02.2018 10:00:00 -0,5 -3,4 16 8 23 13 ENE 1024,5 60 0,0
22.02.2018 09:00:00 -1,6 -3,6 13 7 20 11 NE 1024,1 33 0,0
22.02.2018 08:00:00 -2,2 -3,8 12 6 17 9 NE 1024,0 0 0,0
22.02.2018 07:00:00 -1,9 -3,5 11 6 18 10 NE 1023,6 0 0,0
22.02.2018 06:00:00 -1,8 -3,3 12 7 21 11 NE 1023,5 0 0,0
22.02.2018 05:00:00 -1,2 -3,2 15 8 20 11 NE 1023,5 0 0,0
22.02.2018 04:00:00 -1,2 -2,8 8 5 16 9 NNE 1023,7 0 0,0
22.02.2018 03:00:00 -0,8 -2,4 10 5 16 9 NNE 1024,3 0 0,0
22.02.2018 02:00:00 -0,4 -2,2 9 5 17 9 NNE 1024,5 0 0,0
22.02.2018 01:00:00 0,1 -1,9 11 6 18 10 NE 1024,8 0 0,0
22.02.2018 00:00:00 0,2 -1,6 14 7 22 12 NE 1025,1 0 0,0
21.02.2018 23:00:00 0,6 -1,2 13 7 21 11 NNE 1025,4 0 0,0
21.02.2018 22:00:00 1,4 -0,8 16 8 23 12 NNE 1025,3 0 0,0
21.02.2018 21:00:00 1,4 -0,8 12 7 19 11 NNE 1025,3 0 0,0
21.02.2018 20:00:00 1,7 -0,5 10 6 23 13 NNE 1025,3 0 0,0
21.02.2018 19:00:00 2,7 -1,1 11 6 18 10 NNE 1025,2 0 0,0
21.02.2018 18:00:00 3,7 -1,5 13 7 25 13 NNE 1024,9 55 0,0
21.02.2018 17:00:00 4,4 -1,2 14 8 23 13 NNE 1024,5 60 0,0
21.02.2018 16:00:00 4,4 -2,4 19 10 26 14 NE 1024,7 60 0,0
21.02.2018 15:00:00 4,3 -2,0 17 9 30 16 NNE 1025,7 60 0,0
21.02.2018 14:00:00 - - - - - - - - - -
21.02.2018 13:00:00 3,4 -1,5 14 8 - - NNE 1026,8 - -
21.02.2018 12:00:00 2,6 -1,7 14 8 25 14 NE 1027,1 - -
21.02.2018 11:00:00 1,7 -1,8 14 8 18 10 NE 1027,1 - -
21.02.2018 10:00:00 0,5 -1,4 13 7 18 10 NE 1026,9 60 0,0
21.02.2018 09:00:00 -0,3 -1,5 7 4 14 7 NNE 1026,4 22 0,0
21.02.2018 08:00:00 -0,3 -1,5 9 5 18 10 NE 1026,2 0 0,0
21.02.2018 07:00:00 0,0 -1,3 11 6 17 9 NNE 1026,1 0 0,0
21.02.2018 06:00:00 0,0 -1,2 11 6 20 11 NNE 1025,6 0 0,0
21.02.2018 05:00:00 -0,1 -1,2 12 7 16 9 N 1025,6 0 0,0
21.02.2018 04:00:00 0,0 -1,0 9 5 15 8 NNE 1025,3 0 0,0
21.02.2018 03:00:00 0,5 -0,7 10 5 16 9 NNE 1024,9 0 0,0
21.02.2018 02:00:00 1,0 -0,4 9 5 18 10 NNE 1024,8 0 0,0
21.02.2018 01:00:00 1,4 -0,1 11 6 18 10 NE 1024,3 0 0,0
21.02.2018 00:00:00 2,4 0,4 13 7 20 11 NE 1023,7 0 0,0
20.02.2018 23:00:00 3,1 0,6 14 7 21 12 NE 1023,1 0 0,0
20.02.2018 22:00:00 3,5 0,5 14 8 23 13 NE 1022,6 0 0,0
20.02.2018 21:00:00 3,7 0,9 14 7 19 11 NNE 1021,8 0 0,0
20.02.2018 20:00:00 3,9 0,5 11 6 16 9 NE 1021,0 0 0,0
20.02.2018 19:00:00 4,6 0,1 11 6 16 8 NE 1020,4 0 0,0
20.02.2018 18:00:00 4,4 2,1 6 3 18 10 NNW 1020,0 0 0,3
20.02.2018 17:00:00 5,4 2,3 8 5 12 6 N 1019,5 0 0,0
20.02.2018 16:00:00 5,7 2,9 5 3 10 5 N 1019,0 0 0,0
20.02.2018 15:00:00 5,6 3,1 6 3 9 5 NNE 1019,1 0 0,0
20.02.2018 14:00:00 5,8 2,8 4 2 7 4 W 1019,3 0 0,0
20.02.2018 13:00:00 5,2 2,3 4 2 7 4 ESE 1019,5 0 0,0
20.02.2018 12:00:00 4,8 2,9 4 2 6 4 SSE 1019,5 18 0,0
20.02.2018 11:00:00 3,8 3,0 4 2 6 4 NE 1019,6 1 0,0
20.02.2018 10:00:00 3,1 2,5 4 2 5 3 W 1019,5 0 0,0
20.02.2018 09:00:00 2,5 2,5 4 2 4 2 E 1019,0 0 0,0
20.02.2018 08:00:00 2,2 2,2 4 2 6 3 ENE 1018,8 0 0,0
20.02.2018 07:00:00 2,2 2,2 4 2 12 6 ENE 1018,5 0 0,0
20.02.2018 06:00:00 2,5 2,5 4 2 8 5 E 1018,2 0 0,0
20.02.2018 05:00:00 2,5 2,4 5 3 7 4 E 1018,1 0 0,0
20.02.2018 04:00:00 2,5 2,4 5 3 9 5 E 1017,8 0 0,0
20.02.2018 03:00:00 2,7 2,5 7 4 13 7 ESE 1017,6 0 0,0
20.02.2018 02:00:00 2,8 2,7 8 5 15 8 SE 1017,3 0 0,0
20.02.2018 01:00:00 3,0 2,9 7 4 15 8 SSE 1017,6 0 0,2
20.02.2018 00:00:00 3,0 3,0 11 6 18 10 SE 1017,3 0 0,1
19.02.2018 23:00:00 3,0 3,0 10 5 16 9 SE 1017,0 0 0,0
19.02.2018 22:00:00 3,1 3,1 11 6 19 10 SSE 1017,0 0 0,0

tt = Température de l'air
td = dewpoint
ff = Vitesse du vent
fx = gusts
dd = Direction du vent
ppp = reduced air pressure
sd = Ensoleillement
rr = Quantités de précipitations

stations d'obs. à proximité